Time;durP1;ratioP1;P1;durP2;ratioP2;P2;SDS_P1;SDS_P2;PMS_P1;PMS_P2;Temp;Humidity;BMP_temperature;BMP_pressure;BME280_temperature;BME280_humidity;BME280_pressure;Samples;Min_cycle;Max_cycle;Signal;HPM_P1;HPM_P2
2022/09/14 00:01:27;;;;;;;4.78;2.83;;;;;;;16.48;84.29;99625.63;5013618;28;20034;-75
2022/09/14 00:03:55;;;;;;;3.70;2.63;;;;;;;16.48;84.08;99611.84;4996468;28;20059;-76
2022/09/14 00:06:20;;;;;;;5.38;3.20;;;;;;;16.48;83.79;99614.59;4996996;28;20049;-76
2022/09/14 00:08:50;;;;;;;5.70;3.58;;;;;;;16.49;83.96;99610.72;5019701;28;20475;-72
2022/09/14 00:11:15;;;;;;;6.03;3.72;;;;;;;16.51;83.79;99604.88;4998406;28;20013;-75
2022/09/14 00:13:43;;;;;;;5.30;3.75;;;;;;;16.50;84.12;99608.75;4995356;28;20041;-75
2022/09/14 00:16:25;;;;;;;6.03;4.00;;;;;;;16.49;84.21;99613.47;4999300;28;20017;-75
2022/09/14 00:18:52;;;;;;;4.43;3.70;;;;;;;16.46;84.41;99605.84;4992468;28;20061;-75
2022/09/14 00:21:18;;;;;;;5.97;3.38;;;;;;;16.46;84.01;99597.56;4984558;28;20030;-75
2022/09/14 00:23:47;;;;;;;4.60;3.55;;;;;;;16.44;84.26;99597.09;5003337;28;20029;-75
2022/09/14 00:26:18;;;;;;;4.43;3.75;;;;;;;16.43;84.10;99581.66;4999395;28;20026;-75
2022/09/14 00:28:46;;;;;;;5.57;3.80;;;;;;;16.46;84.14;99583.78;5009988;28;20029;-76
2022/09/14 00:31:12;;;;;;;5.38;4.28;;;;;;;16.42;84.05;99574.53;5006278;28;20018;-75
2022/09/14 00:33:40;;;;;;;6.50;4.80;;;;;;;16.46;84.07;99580.22;5001319;28;20046;-75
2022/09/14 00:36:14;;;;;;;6.28;4.38;;;;;;;16.44;84.44;99571.44;4999689;28;20034;-75
2022/09/14 00:38:40;;;;;;;5.93;3.40;;;;;;;16.40;84.33;99566.56;5017608;28;20386;-74
2022/09/14 00:41:10;;;;;;;5.05;3.90;;;;;;;16.42;84.40;99552.44;4996167;28;20113;-71
2022/09/14 00:43:59;;;;;;;4.88;3.42;;;;;;;16.42;84.34;99552.44;5002388;28;20039;-72
2022/09/14 00:46:27;;;;;;;4.53;3.65;;;;;;;16.41;84.40;99550.81;4989658;28;20027;-71
2022/09/14 00:48:56;;;;;;;6.63;4.38;;;;;;;16.41;84.18;99545.31;4994032;28;20483;-71
2022/09/14 00:51:23;;;;;;;5.03;3.70;;;;;;;16.40;84.26;99538.97;5007028;28;20451;-73
2022/09/14 00:53:49;;;;;;;5.10;3.40;;;;;;;16.40;84.21;99532.66;5007123;28;20120;-71
2022/09/14 00:56:14;;;;;;;4.50;3.33;;;;;;;16.42;84.68;99535.91;4981472;28;20045;-71
2022/09/14 00:58:41;;;;;;;6.05;3.10;;;;;;;16.43;84.32;99534.75;5008026;28;20023;-73
2022/09/14 01:01:08;;;;;;;4.75;3.47;;;;;;;16.46;84.04;99534.09;4974007;28;20115;-73
2022/09/14 01:03:34;;;;;;;4.40;3.67;;;;;;;16.49;83.75;99535.41;4993583;28;20028;-71
2022/09/14 01:06:10;;;;;;;5.05;3.40;;;;;;;16.45;84.36;99528.91;4997369;28;20061;-72
2022/09/14 01:09:04;;;;;;;6.00;4.25;;;;;;;16.42;84.45;99530.38;5021650;28;20032;-72
2022/09/14 01:11:40;;;;;;;5.38;3.78;;;;;;;16.40;84.44;99532.66;4996551;28;20034;-75
2022/09/14 01:14:06;;;;;;;7.10;3.35;;;;;;;16.36;84.22;99532.50;4997314;28;20156;-73
2022/09/14 01:16:42;;;;;;;5.40;3.50;;;;;;;16.35;84.22;99530.06;5024021;28;20045;-73
2022/09/14 01:19:21;;;;;;;4.25;2.83;;;;;;;16.36;85.00;99526.97;5008392;28;20030;-72
2022/09/14 01:21:48;;;;;;;4.63;3.65;;;;;;;16.34;84.51;99515.47;5010917;28;20571;-72
2022/09/14 01:24:36;;;;;;;5.25;3.35;;;;;;;16.40;84.51;99518.88;5008114;28;20029;-72
2022/09/14 01:27:32;;;;;;;3.53;2.92;;;;;;;16.46;84.72;99525.84;4990040;28;20061;-72
2022/09/14 01:30:11;;;;;;;3.88;2.88;;;;;;;16.48;84.23;99523.53;5006984;28;20030;-71
2022/09/14 01:32:49;;;;;;;4.60;3.00;;;;;;;16.48;83.72;99512.50;4992665;28;20023;-71
2022/09/14 01:35:22;;;;;;;5.72;3.58;;;;;;;16.48;84.14;99522.75;5020295;28;20041;-72
2022/09/14 01:37:53;;;;;;;5.30;3.75;;;;;;;16.47;84.38;99513.66;4999963;28;20033;-73
2022/09/14 01:40:43;;;;;;;6.05;3.28;;;;;;;16.48;84.39;99517.22;5019241;28;20033;-76
2022/09/14 01:43:23;;;;;;;4.88;3.70;;;;;;;16.49;84.05;99508.63;5021840;28;20060;-75
2022/09/14 01:45:53;;;;;;;8.98;5.22;;;;;;;16.49;84.02;99511.38;5020476;28;20022;-75
2022/09/14 01:48:25;;;;;;;7.85;4.78;;;;;;;16.49;83.81;99508.63;5021088;28;20022;-75
2022/09/14 01:50:55;;;;;;;8.68;4.75;;;;;;;16.51;83.81;99506.31;5021621;28;20081;-76
2022/09/14 01:53:33;;;;;;;5.45;4.05;;;;;;;16.51;83.69;99514.59;4993799;28;20097;-76
2022/09/14 01:56:19;;;;;;;5.93;4.90;;;;;;;16.52;84.39;99509.91;5000049;28;20030;-76
2022/09/14 01:58:52;;;;;;;6.40;5.22;;;;;;;16.53;84.50;99515.09;4998788;28;20179;-76
2022/09/14 02:01:23;;;;;;;8.00;4.70;;;;;;;16.52;83.98;99507.97;4999365;28;20045;-76
2022/09/14 02:03:55;;;;;;;6.85;4.30;;;;;;;16.53;84.29;99515.09;5003025;28;20037;-77
2022/09/14 02:06:42;;;;;;;9.32;5.20;;;;;;;16.50;84.50;99518.53;4999466;28;20022;-76
2022/09/14 02:09:12;;;;;;;9.25;6.60;;;;;;;16.48;84.29;99512.50;5016726;28;20136;-75
2022/09/14 02:11:39;;;;;;;11.25;6.25;;;;;;;16.47;84.60;99518.34;5020492;28;20022;-76
2022/09/14 02:14:05;;;;;;;8.65;6.00;;;;;;;16.45;84.61;99513.16;5031969;28;20414;-77
2022/09/14 02:16:31;;;;;;;6.95;4.63;;;;;;;16.45;84.95;99502.13;5003100;28;20026;-76
2022/09/14 02:19:00;;;;;;;7.90;5.80;;;;;;;16.42;85.00;99505.53;4985010;28;20030;-72
2022/09/14 02:21:28;;;;;;;6.85;5.38;;;;;;;16.46;85.00;99508.47;5014716;23;20273;-73
2022/09/14 02:23:53;;;;;;;10.65;5.45;;;;;;;16.45;84.57;99512.38;5022106;28;20021;-71
2022/09/14 02:26:20;;;;;;;6.15;5.30;;;;;;;16.45;84.94;99507.66;5022861;28;20514;-73
2022/09/14 02:28:46;;;;;;;7.60;5.38;;;;;;;16.48;84.91;99509.75;5007446;28;20037;-73
2022/09/14 02:31:43;;;;;;;9.25;5.80;;;;;;;16.49;84.43;99505.84;5009968;28;20030;-73
2022/09/14 02:34:33;;;;;;;11.05;6.10;;;;;;;16.46;84.25;99509.28;5018378;28;20471;-74
2022/09/14 02:37:24;;;;;;;6.93;5.43;;;;;;;16.48;84.93;99508.94;5000043;28;20365;-74
2022/09/14 02:40:08;;;;;;;6.07;4.75;;;;;;;16.52;84.81;99507.16;5024365;28;20029;-74
2022/09/14 02:42:46;;;;;;;6.13;4.88;;;;;;;16.51;84.27;99489.78;5024930;28;20452;-75
2022/09/14 02:45:34;;;;;;;6.05;4.35;;;;;;;16.53;84.13;99498.53;5012836;28;20412;-76
2022/09/14 02:48:07;;;;;;;6.00;4.93;;;;;;;16.56;84.43;99503.41;5014582;28;20030;-76
2022/09/14 02:50:40;;;;;;;7.38;5.55;;;;;;;16.61;83.99;99499.66;5012781;28;20037;-77
2022/09/14 02:53:08;;;;;;;7.65;5.70;;;;;;;16.65;83.73;99499.81;5009620;28;20336;-78
2022/09/14 02:55:38;;;;;;;6.57;5.30;;;;;;;16.61;83.96;99493.34;5016974;28;20057;-76
2022/09/14 02:58:05;;;;;;;7.43;4.75;;;;;;;16.57;83.79;99494.00;5011363;28;21072;-75
2022/09/14 03:00:35;;;;;;;5.72;3.70;;;;;;;16.56;84.12;99492.38;5017630;28;20029;-76
2022/09/14 03:03:01;;;;;;;5.70;4.50;;;;;;;16.54;84.18;99480.84;5011660;28;20026;-76
2022/09/14 03:05:26;;;;;;;6.68;4.80;;;;;;;16.63;84.13;99485.53;4995747;28;20034;-76
2022/09/14 03:07:52;;;;;;;4.80;4.30;;;;;;;16.62;83.33;99489.41;5017962;28;20033;-75
2022/09/14 03:10:17;;;;;;;4.57;4.15;;;;;;;16.61;84.11;99479.53;4993483;28;20457;-75
2022/09/14 03:12:43;;;;;;;7.30;5.22;;;;;;;16.57;83.59;99480.19;4996738;28;20030;-76
2022/09/14 03:15:08;;;;;;;8.10;5.80;;;;;;;16.53;84.17;99481.19;5009756;28;20120;-77
2022/09/14 03:17:34;;;;;;;6.63;5.20;;;;;;;16.49;84.35;99481.03;5008694;28;20026;-77
2022/09/14 03:19:59;;;;;;;6.07;5.13;;;;;;;16.45;84.21;99479.25;4987136;28;20045;-78
2022/09/14 03:22:25;;;;;;;7.45;5.80;;;;;;;16.44;84.91;99481.22;5011656;28;20065;-76
2022/09/14 03:24:50;;;;;;;8.95;7.03;;;;;;;16.35;84.77;99477.63;5015217;28;20038;-75
2022/09/14 03:27:16;;;;;;;9.98;6.57;;;;;;;16.28;85.20;99467.13;4999167;28;20030;-77
2022/09/14 03:29:42;;;;;;;10.45;6.63;;;;;;;16.26;85.18;99474.09;4990846;28;20694;-73
2022/09/14 03:32:09;;;;;;;12.68;8.07;;;;;;;16.28;85.27;99477.34;4992856;28;20058;-72
2022/09/14 03:34:35;;;;;;;12.10;7.18;;;;;;;16.26;85.08;99472.16;5013866;28;20038;-71
2022/09/14 03:37:01;;;;;;;8.85;6.30;;;;;;;16.20;85.83;99463.22;4992523;28;20193;-74
2022/09/14 03:39:27;;;;;;;8.52;6.50;;;;;;;16.20;85.80;99460.47;4980202;28;20034;-72
2022/09/14 03:41:53;;;;;;;10.73;8.13;;;;;;;16.23;85.58;99457.06;4993530;28;20037;-72
2022/09/14 03:44:19;;;;;;;11.07;7.75;;;;;;;16.19;85.65;99461.63;5010688;28;20022;-72
2022/09/14 03:46:44;;;;;;;11.77;8.00;;;;;;;16.25;86.23;99466.94;5008713;28;20025;-71
2022/09/14 03:49:09;;;;;;;13.85;7.78;;;;;;;16.21;85.85;99464.84;5011361;28;20080;-71
2022/09/14 03:51:35;;;;;;;14.73;9.65;;;;;;;16.17;85.77;99463.88;5010516;28;20034;-72
2022/09/14 03:54:00;;;;;;;15.80;9.15;;;;;;;16.15;85.95;99466.16;5001891;28;20026;-72
2022/09/14 03:56:26;;;;;;;11.77;7.82;;;;;;;16.14;85.95;99461.78;5008912;28;20105;-72
2022/09/14 03:58:51;;;;;;;11.73;7.55;;;;;;;16.13;86.38;99462.91;4986043;28;20038;-72
2022/09/14 04:01:19;;;;;;;16.33;8.70;;;;;;;16.12;86.36;99461.31;5005491;28;20044;-73
2022/09/14 04:03:45;;;;;;;12.73;8.10;;;;;;;16.14;86.47;99460.97;5010091;28;20100;-72
2022/09/14 04:06:11;;;;;;;11.10;7.70;;;;;;;16.12;86.87;99461.31;5011751;28;20642;-71
2022/09/14 04:08:39;;;;;;;12.60;7.55;;;;;;;16.09;86.55;99461.97;5008358;28;20048;-71
2022/09/14 04:11:08;;;;;;;14.48;7.40;;;;;;;16.07;87.21;99464.22;5003014;28;20022;-71
2022/09/14 04:13:34;;;;;;;11.45;7.72;;;;;;;16.10;86.86;99460.00;5015528;28;20029;-71
2022/09/14 04:16:00;;;;;;;9.27;7.18;;;;;;;16.05;86.79;99461.00;5001204;28;20060;-72
2022/09/14 04:18:26;;;;;;;9.55;6.20;;;;;;;16.04;87.01;99453.84;5004771;28;20077;-70
2022/09/14 04:20:57;;;;;;;11.38;7.78;;;;;;;16.07;86.91;99453.19;5008946;28;20033;-70
2022/09/14 04:23:22;;;;;;;11.13;7.82;;;;;;;16.07;87.18;99453.19;4990846;28;20046;-70
2022/09/14 04:25:48;;;;;;;8.85;6.80;;;;;;;16.10;86.58;99452.53;5007493;28;20034;-69
2022/09/14 04:28:13;;;;;;;9.93;6.70;;;;;;;16.09;86.56;99453.69;4981909;28;20558;-71
2022/09/14 04:30:39;;;;;;;11.65;7.40;;;;;;;16.07;87.32;99453.19;4998121;28;20030;-71
2022/09/14 04:33:04;;;;;;;10.52;6.15;;;;;;;16.04;87.10;99453.84;4996916;28;20037;-72
2022/09/14 04:35:30;;;;;;;11.02;6.90;;;;;;;16.00;87.42;99459.22;4994887;28;20038;-72
2022/09/14 04:37:55;;;;;;;8.73;5.97;;;;;;;16.02;87.12;99456.94;4998042;28;20032;-71
2022/09/14 04:40:20;;;;;;;10.07;6.60;;;;;;;16.01;87.38;99454.50;4980671;28;20117;-73
2022/09/14 04:42:46;;;;;;;7.82;5.88;;;;;;;16.06;87.09;99457.06;4977041;28;20110;-72
2022/09/14 04:45:12;;;;;;;9.90;6.55;;;;;;;16.03;86.66;99458.56;5010171;28;20080;-72
2022/09/14 04:47:37;;;;;;;10.85;6.97;;;;;;;16.01;86.60;99455.31;4980777;28;20140;-72
2022/09/14 04:50:04;;;;;;;8.35;5.68;;;;;;;15.96;87.17;99458.25;4985221;28;20516;-72
2022/09/14 04:52:29;;;;;;;9.70;6.40;;;;;;;15.94;87.40;99454.19;4979610;28;20030;-72
2022/09/14 04:54:55;;;;;;;8.75;6.13;;;;;;;15.95;86.73;99458.56;4979355;28;20060;-73
2022/09/14 04:57:22;;;;;;;11.85;6.78;;;;;;;15.91;87.09;99454.84;5007771;28;20050;-72
2022/09/14 04:59:47;;;;;;;10.10;6.00;;;;;;;15.86;86.89;99451.09;5002820;28;20032;-72
2022/09/14 05:02:13;;;;;;;9.63;6.88;;;;;;;15.86;87.11;99453.88;4999883;28;20029;-71
2022/09/14 05:04:41;;;;;;;8.88;5.63;;;;;;;15.84;87.21;99452.56;4983571;28;20033;-71
2022/09/14 05:07:06;;;;;;;7.15;5.57;;;;;;;15.82;87.48;99452.88;5028423;28;20041;-73
2022/09/14 05:09:32;;;;;;;5.38;4.35;;;;;;;15.79;87.16;99459.06;4955738;28;20053;-72
2022/09/14 05:11:57;;;;;;;6.18;4.60;;;;;;;15.83;87.12;99457.28;4979268;28;20057;-71
2022/09/14 05:14:23;;;;;;;6.90;4.78;;;;;;;15.91;87.20;99460.34;4964322;28;20045;-71
2022/09/14 05:16:48;;;;;;;6.07;4.63;;;;;;;15.90;86.81;99454.00;5020421;28;20030;-76
2022/09/14 05:19:16;;;;;;;6.68;4.63;;;;;;;15.86;86.62;99453.88;4980699;28;20037;-76
2022/09/14 05:21:42;;;;;;;7.60;4.30;;;;;;;15.90;86.99;99458.72;5020502;28;20096;-75
2022/09/14 05:24:16;;;;;;;6.00;4.45;;;;;;;15.87;86.59;99455.50;4999079;28;20034;-76
2022/09/14 05:26:43;;;;;;;5.45;4.28;;;;;;;15.92;86.00;99457.28;5006092;28;20037;-74
2022/09/14 05:29:16;;;;;;;5.18;3.72;;;;;;;15.90;86.29;99455.97;5011737;28;20030;-76
2022/09/14 05:31:41;;;;;;;8.23;3.92;;;;;;;15.94;86.10;99460.50;5003620;28;20026;-76
2022/09/14 05:34:09;;;;;;;7.50;4.85;;;;;;;15.90;85.81;99448.50;5015038;28;20445;-76
2022/09/14 05:36:35;;;;;;;5.88;4.03;;;;;;;15.85;85.93;99457.75;4998423;28;20026;-71
2022/09/14 05:39:01;;;;;;;8.23;4.07;;;;;;;15.77;86.19;99443.94;4988782;28;20026;-72
2022/09/14 05:41:26;;;;;;;9.27;4.15;;;;;;;15.71;86.36;99446.03;4982291;28;20095;-72
2022/09/14 05:43:51;;;;;;;5.13;3.50;;;;;;;15.71;85.88;99446.03;4995331;28;20108;-72
2022/09/14 05:46:21;;;;;;;6.95;4.05;;;;;;;15.75;86.03;99449.78;4991544;28;20040;-72
2022/09/14 05:48:50;;;;;;;5.93;4.25;;;;;;;15.66;86.42;99446.22;5014824;28;20383;-72
2022/09/14 05:51:19;;;;;;;6.50;3.88;;;;;;;15.65;86.26;99459.19;4974214;28;20127;-73
2022/09/14 05:53:54;;;;;;;6.35;4.10;;;;;;;15.56;86.62;99449.28;5002341;28;20093;-73
2022/09/14 05:56:22;;;;;;;6.97;3.65;;;;;;;15.60;86.55;99458.53;5000577;28;20056;-71
2022/09/14 05:58:49;;;;;;;5.05;3.40;;;;;;;15.58;86.60;99458.88;4999847;28;20029;-72
2022/09/14 06:01:19;;;;;;;5.00;3.33;;;;;;;15.60;86.31;99469.56;4993038;28;20046;-70
2022/09/14 06:03:46;;;;;;;3.60;2.90;;;;;;;15.58;86.73;99466.31;4996298;28;20037;-71
2022/09/14 06:06:14;;;;;;;4.75;2.72;;;;;;;15.57;86.18;99467.47;5000046;28;20029;-73
2022/09/14 06:08:40;;;;;;;5.53;3.40;;;;;;;15.58;86.36;99469.06;5007230;28;20468;-72
2022/09/14 06:11:15;;;;;;;4.70;2.97;;;;;;;15.64;86.27;99463.09;4967741;28;20025;-70
2022/09/14 06:13:40;;;;;;;;;;;;;;;15.63;86.38;99460.66;5004182;28;20121;-71
2022/09/14 06:16:09;;;;;;;3.50;2.80;;;;;;;15.67;85.63;99461.63;5016509;28;19960;-71
2022/09/14 06:18:36;;;;;;;3.92;2.70;;;;;;;15.67;85.43;99458.88;5001599;28;20077;-70
2022/09/14 06:21:02;;;;;;;6.25;2.88;;;;;;;15.61;85.55;99463.72;5019519;28;20748;-72
2022/09/14 06:23:28;;;;;;;5.28;3.00;;;;;;;15.65;85.19;99469.38;5003560;28;20052;-71
2022/09/14 06:25:55;;;;;;;5.18;3.10;;;;;;;15.61;85.31;99474.75;5010427;28;20053;-71
2022/09/14 06:28:21;;;;;;;3.67;3.00;;;;;;;15.59;85.08;99473.44;5015555;28;20021;-71
2022/09/14 06:30:47;;;;;;;4.03;3.10;;;;;;;15.60;85.25;99478.63;5013400;28;20042;-69
2022/09/14 06:33:12;;;;;;;3.60;2.97;;;;;;;15.61;85.40;99479.44;5006560;28;20041;-70
2022/09/14 06:35:38;;;;;;;6.43;3.58;;;;;;;15.57;85.63;99475.72;4988294;28;20018;-71
2022/09/14 06:38:03;;;;;;;6.05;3.40;;;;;;;15.47;85.79;99488.66;5013231;28;20029;-72
2022/09/14 06:40:28;;;;;;;5.65;3.67;;;;;;;15.40;86.11;99485.56;5015131;28;20121;-74
2022/09/14 06:42:54;;;;;;;5.00;3.70;;;;;;;15.37;86.24;99488.97;5004851;28;20476;-71
2022/09/14 06:45:19;;;;;;;6.85;4.10;;;;;;;15.35;86.34;99482.97;4975129;28;20040;-71
2022/09/14 06:47:45;;;;;;;7.40;4.50;;;;;;;15.32;86.96;99478.13;5018166;28;20025;-73
2022/09/14 06:50:10;;;;;;;6.25;4.35;;;;;;;15.31;87.16;99482.78;5002931;28;20088;-72
2022/09/14 06:52:36;;;;;;;5.95;3.60;;;;;;;15.33;87.28;99479.72;4977512;28;20081;-74
2022/09/14 06:55:08;;;;;;;3.88;3.22;;;;;;;15.31;87.20;99480.03;5010487;28;20044;-75
2022/09/14 06:57:33;;;;;;;7.05;4.57;;;;;;;15.38;87.34;99493.34;5010191;28;20046;-71
2022/09/14 06:59:59;;;;;;;6.10;3.22;;;;;;;15.35;87.25;99477.47;5011766;28;20026;-72
2022/09/14 07:02:24;;;;;;;5.22;3.47;;;;;;;15.43;86.89;99489.63;5006034;28;20030;-75
2022/09/14 07:04:49;;;;;;;8.20;3.65;;;;;;;15.45;87.28;99496.44;5020377;28;20156;-71
2022/09/14 07:07:15;;;;;;;6.32;3.72;;;;;;;15.49;86.72;99505.69;5006188;28;20054;-71
2022/09/14 07:09:40;;;;;;;4.43;2.72;;;;;;;15.51;87.03;99491.59;4997746;28;20036;-71
2022/09/14 07:12:06;;;;;;;5.07;3.67;;;;;;;15.57;86.63;99490.31;5013947;28;20030;-72
2022/09/14 07:14:32;;;;;;;4.30;3.10;;;;;;;15.63;86.80;99499.22;5004008;28;20088;-72
2022/09/14 07:16:58;;;;;;;4.05;2.95;;;;;;;15.67;86.12;99495.50;4997593;28;20026;-72
2022/09/14 07:19:23;;;;;;;6.38;3.53;;;;;;;15.76;86.48;99492.75;5016881;28;20029;-72
2022/09/14 07:21:49;;;;;;;6.43;2.78;;;;;;;15.84;85.52;99493.91;5001251;28;20177;-71
2022/09/14 07:24:14;;;;;;;7.32;3.40;;;;;;;15.95;85.15;99494.41;4990071;28;20038;-71
2022/09/14 07:26:41;;;;;;;3.55;2.65;;;;;;;16.04;85.09;99495.22;4979941;28;20085;-72
2022/09/14 07:29:16;;;;;;;4.72;2.78;;;;;;;16.14;84.30;99500.38;5010044;28;20080;-72
2022/09/14 07:31:46;;;;;;;3.70;2.55;;;;;;;16.22;83.60;99490.47;5003793;28;20057;-72
2022/09/14 07:34:13;;;;;;;5.63;2.58;;;;;;;16.38;83.47;99488.03;5006977;28;20034;-71
2022/09/14 07:36:39;;;;;;;3.17;2.53;;;;;;;16.56;83.30;99495.13;5016573;28;20029;-72
2022/09/14 07:39:07;;;;;;;3.65;2.63;;;;;;;16.75;82.52;99485.66;4983604;28;20145;-72
2022/09/14 07:41:33;;;;;;;3.72;2.60;;;;;;;16.96;81.64;99493.25;4978804;28;20023;-72
2022/09/14 07:44:00;;;;;;;4.25;2.58;;;;;;;17.14;81.26;99503.03;5001174;28;20038;-72
2022/09/14 07:46:28;;;;;;;4.65;2.40;;;;;;;17.33;80.49;99496.28;5007391;28;20160;-71
2022/09/14 07:48:58;;;;;;;3.42;2.33;;;;;;;17.47;79.53;99502.38;5003776;28;20026;-72
2022/09/14 07:51:26;;;;;;;4.32;2.90;;;;;;;17.51;78.75;99503.34;4985623;28;20492;-71
2022/09/14 07:53:52;;;;;;;4.20;2.08;;;;;;;17.52;78.95;99504.97;5001595;28;20029;-72
2022/09/14 07:56:19;;;;;;;4.05;2.78;;;;;;;17.55;79.01;99504.28;4992959;28;20395;-71
2022/09/14 07:58:44;;;;;;;4.80;3.05;;;;;;;17.52;78.48;99504.97;5022187;28;20021;-72
2022/09/14 08:01:16;;;;;;;3.28;2.70;;;;;;;17.45;78.30;99497.19;5007100;28;20049;-72
2022/09/14 08:03:43;;;;;;;4.15;3.05;;;;;;;17.51;78.88;99506.09;5008253;28;20045;-72
2022/09/14 08:06:10;;;;;;;4.80;2.50;;;;;;;17.54;78.23;99508.19;4989998;28;20042;-73
2022/09/14 08:08:38;;;;;;;3.25;1.98;;;;;;;17.58;78.36;99509.16;4988641;28;20061;-72
2022/09/14 08:11:10;;;;;;;3.47;2.15;;;;;;;17.58;78.84;99514.69;5013561;28;20029;-71
2022/09/14 08:13:38;;;;;;;4.88;1.95;;;;;;;17.59;78.69;99521.81;4989867;28;20423;-72
2022/09/14 08:16:04;;;;;;;3.92;2.85;;;;;;;17.56;78.52;99519.72;5009353;28;20476;-71
2022/09/14 08:18:31;;;;;;;7.10;3.05;;;;;;;17.48;78.41;99514.25;4962386;28;20476;-74
2022/09/14 08:21:03;;;;;;;4.47;2.83;;;;;;;17.39;78.31;99519.81;4995860;28;20025;-73
2022/09/14 08:23:28;;;;;;;5.10;3.10;;;;;;;17.32;78.21;99519.53;5012410;28;20145;-72
2022/09/14 08:25:54;;;;;;;4.72;2.97;;;;;;;17.24;78.52;99522.03;5003574;28;20057;-72
2022/09/14 08:28:19;;;;;;;6.90;2.72;;;;;;;17.16;78.96;99514.59;4979044;28;20424;-72
2022/09/14 08:30:45;;;;;;;4.55;2.75;;;;;;;17.16;79.43;99509.06;5007737;28;20534;-72
2022/09/14 08:33:11;;;;;;;4.63;2.45;;;;;;;17.21;79.13;99511.63;5005645;28;20050;-72
2022/09/14 08:35:43;;;;;;;6.07;3.33;;;;;;;17.30;79.08;99508.00;4998755;28;20033;-72
2022/09/14 08:38:09;;;;;;;8.38;2.92;;;;;;;17.43;78.90;99512.47;5006499;28;20038;-73
2022/09/14 08:40:41;;;;;;;7.28;3.35;;;;;;;17.50;78.59;99507.25;4988277;28;21052;-71
2022/09/14 08:43:10;;;;;;;4.25;2.42;;;;;;;17.54;78.15;99519.25;5017037;28;20045;-73
2022/09/14 08:45:38;;;;;;;3.47;2.83;;;;;;;17.53;78.05;99516.81;5001796;28;20027;-72
2022/09/14 08:48:08;;;;;;;3.75;2.55;;;;;;;17.54;78.38;99523.97;5006738;28;20451;-72
2022/09/14 08:50:33;;;;;;;5.28;3.25;;;;;;;17.55;78.86;99525.56;5011981;28;20416;-72
2022/09/14 08:57:43;;;;;;;;;;;;;;;;;;;;;
2022/09/14 09:00:37;;;;;;;6.22;3.67;;;;;;;17.46;77.81;99528.41;4996304;28;20094;-73
2022/09/14 09:03:31;;;;;;;6.57;3.10;;;;;;;17.70;77.40;99535.25;5013142;28;20416;-73
2022/09/14 09:06:20;;;;;;;7.55;2.47;;;;;;;17.80;77.33;99532.09;5000496;28;20015;-72
2022/09/14 09:09:11;;;;;;;6.35;2.88;;;;;;;17.81;76.57;99525.41;5000710;28;20073;-73
2022/09/14 09:11:41;;;;;;;4.15;2.30;;;;;;;17.97;76.57;99539.47;5003228;28;20023;-72
2022/09/14 09:14:18;;;;;;;6.72;2.80;;;;;;;18.09;75.30;99544.25;5004943;28;20096;-74
2022/09/14 09:16:49;;;;;;;9.10;2.80;;;;;;;18.15;75.32;99537.38;5014046;28;20034;-72
2022/09/14 09:19:22;;;;;;;4.70;2.45;;;;;;;18.22;74.92;99543.16;5022869;28;20216;-73
2022/09/14 09:21:48;;;;;;;7.68;2.83;;;;;;;18.29;74.63;99532.34;5004213;28;20014;-72
2022/09/14 09:24:26;;;;;;;3.65;2.22;;;;;;;18.45;73.93;99529.75;4976740;28;20085;-71
2022/09/14 09:26:52;;;;;;;3.75;1.98;;;;;;;18.75;73.34;99539.88;4983549;28;20022;-72
2022/09/14 09:29:18;;;;;;;5.88;2.10;;;;;;;18.93;72.37;99538.56;4980544;28;20042;-72
2022/09/14 09:31:47;;;;;;;4.90;2.60;;;;;;;19.26;71.64;99534.91;4959017;28;20022;-72
2022/09/14 09:34:15;;;;;;;3.55;1.88;;;;;;;19.87;69.67;99544.34;4993384;28;20034;-72
2022/09/14 09:36:45;;;;;;;5.07;1.85;;;;;;;20.61;67.09;99546.84;4994881;28;20029;-74
2022/09/14 09:39:11;;;;;;;7.45;2.08;;;;;;;21.12;65.12;99542.63;4995552;28;20038;-74
2022/09/14 09:42:15;;;;;;;2.15;1.35;;;;;;;21.62;62.64;99543.84;4996106;28;20137;-73
2022/09/14 09:45:01;;;;;;;3.65;1.52;;;;;;;22.71;60.04;99541.38;4974178;28;20050;-72
2022/09/14 09:47:45;;;;;;;3.28;1.30;;;;;;;23.82;58.47;99553.56;4988501;28;20452;-73
2022/09/14 09:50:13;;;;;;;3.88;1.30;;;;;;;27.17;51.54;99551.31;4971580;28;20135;-74
2022/09/14 09:52:49;;;;;;;2.28;1.08;;;;;;;31.02;43.70;99552.56;5000171;28;20377;-72
2022/09/14 09:55:24;;;;;;;2.53;1.08;;;;;;;35.45;34.79;99557.94;5000709;28;20026;-72
2022/09/14 09:57:55;;;;;;;1.52;0.80;;;;;;;37.45;30.01;99541.41;4980623;28;20026;-76
2022/09/14 10:00:24;;;;;;;1.83;0.73;;;;;;;36.80;29.35;99538.38;5008972;28;20102;-74
2022/09/14 10:02:51;;;;;;;3.65;0.80;;;;;;;35.77;30.95;99533.28;4990213;28;20475;-73
2022/09/14 10:05:16;;;;;;;1.30;0.70;;;;;;;34.37;31.69;99532.97;4982655;28;20030;-73
2022/09/14 10:07:47;;;;;;;2.53;1.13;;;;;;;32.44;33.90;99529.75;4996667;28;20030;-72
2022/09/14 10:10:15;;;;;;;1.30;0.50;;;;;;;31.11;36.13;99538.69;5000759;28;20050;-72
2022/09/14 10:12:48;;;;;;;3.90;0.50;;;;;;;31.07;36.29;99529.47;4982940;28;20034;-74
2022/09/14 10:15:28;;;;;;;2.85;0.90;;;;;;;30.31;37.39;99538.19;4997327;28;20031;-72
2022/09/14 10:18:12;;;;;;;0.55;0.43;;;;;;;29.81;38.84;99545.19;4993573;28;20030;-73
2022/09/14 10:20:43;;;;;;;1.30;0.70;;;;;;;29.78;39.57;99535.56;4999978;28;20065;-74
2022/09/14 10:23:25;;;;;;;2.17;1.20;;;;;;;29.51;39.46;99537.47;5000689;28;20048;-73
2022/09/14 10:26:09;;;;;;;2.67;1.20;;;;;;;28.81;40.97;99524.34;5001014;28;20030;-73
2022/09/14 10:28:36;;;;;;;2.08;0.90;;;;;;;31.51;37.76;99521.06;5011541;28;20029;-72
2022/09/14 10:31:05;;;;;;;3.95;1.20;;;;;;;35.23;32.06;99530.22;5015232;28;20066;-74
2022/09/14 10:33:31;;;;;;;1.55;1.10;;;;;;;37.22;29.09;99532.16;5013780;28;20019;-72
2022/09/14 10:36:18;;;;;;;2.58;1.10;;;;;;;39.75;26.70;99530.50;5008283;28;20026;-71
2022/09/14 10:38:57;;;;;;;2.95;1.00;;;;;;;40.06;25.06;99526.44;5006143;28;20036;-72
2022/09/14 10:41:40;;;;;;;2.15;1.10;;;;;;;39.71;24.24;99518.47;5004877;28;20026;-73
2022/09/14 10:44:36;;;;;;;1.45;0.68;;;;;;;39.60;24.60;99532.53;5014957;28;20041;-74
2022/09/14 10:47:20;;;;;;;3.95;1.05;;;;;;;36.97;26.52;99525.44;5014831;28;20105;-72
2022/09/14 10:50:13;;;;;;;2.55;0.63;;;;;;;34.39;29.62;99521.94;5008856;28;20108;-72
2022/09/14 10:52:57;;;;;;;3.17;0.70;;;;;;;31.89;32.53;99520.75;5014163;28;20030;-73
2022/09/14 10:55:30;;;;;;;;;;;;;;;30.16;34.79;99514.25;5013039;28;20033;-73
2022/09/14 10:58:16;;;;;;;2.72;0.75;;;;;;;29.74;35.92;99523.53;5029734;28;19915;-71
2022/09/14 11:01:01;;;;;;;2.17;0.98;;;;;;;29.03;37.85;99519.34;5024887;28;20041;-73
2022/09/14 11:04:04;;;;;;;4.05;1.05;;;;;;;31.15;36.08;99522.50;5011900;28;20034;-74
2022/09/14 11:06:42;;;;;;;2.42;0.95;;;;;;;34.05;31.47;99532.66;5000110;28;20022;-72
2022/09/14 11:09:23;;;;;;;2.80;0.70;;;;;;;35.74;28.13;99534.97;5027775;28;20026;-72
2022/09/14 11:11:55;;;;;;;1.55;0.80;;;;;;;39.35;25.09;99540.31;5016016;28;20024;-72
2022/09/14 11:14:32;;;;;;;3.03;1.00;;;;;;;40.70;23.43;99554.84;4999163;28;20450;-73
2022/09/14 11:17:00;;;;;;;2.17;0.90;;;;;;;43.02;20.57;99549.72;5014034;28;20025;-72
2022/09/14 11:20:02;;;;;;;;;;;;;;;;;;;;;
2022/09/14 11:22:41;;;;;;;2.05;0.90;;;;;;;41.57;20.68;99550.63;5000829;28;20976;-72
2022/09/14 11:25:17;;;;;;;3.83;1.00;;;;;;;44.10;19.04;99544.38;5013909;28;20049;-72
2022/09/14 11:27:51;;;;;;;3.72;0.93;;;;;;;45.16;17.77;99544.88;4996852;28;20026;-74
2022/09/14 11:30:19;;;;;;;6.18;1.00;;;;;;;47.32;16.27;99542.00;5001187;28;20029;-73
2022/09/14 11:32:50;;;;;;;2.20;0.60;;;;;;;50.84;14.77;99541.03;4991221;28;20030;-73
2022/09/14 11:35:28;;;;;;;1.95;0.80;;;;;;;52.43;13.14;99537.81;5014057;28;20026;-73
2022/09/14 11:38:00;;;;;;;2.30;0.73;;;;;;;49.24;13.27;99534.47;5015596;28;21169;-74
2022/09/14 11:40:31;;;;;;;2.10;0.82;;;;;;;48.62;14.57;99535.66;5013193;28;20029;-73
2022/09/14 11:43:14;;;;;;;1.55;0.60;;;;;;;50.03;13.98;99535.66;5005566;28;20034;-73
2022/09/14 11:45:47;;;;;;;2.43;0.73;;;;;;;51.07;13.15;99541.19;5011843;28;20105;-73
2022/09/14 11:48:24;;;;;;;3.15;1.15;;;;;;;51.01;12.55;99538.44;4995096;28;20480;-72
2022/09/14 11:51:04;;;;;;;1.73;0.70;;;;;;;49.85;13.41;99534.47;4981658;28;20033;-73
2022/09/14 11:53:31;;;;;;;2.10;1.00;;;;;;;50.15;13.32;99536.19;4999997;28;20029;-72
2022/09/14 11:55:57;;;;;;;1.23;0.40;;;;;;;49.85;13.88;99531.56;4998060;28;20472;-73
2022/09/14 11:58:28;;;;;;;1.85;0.63;;;;;;;50.55;12.59;99538.09;5008734;28;20018;-72